NCAR-RAP Real-Time Weather Data

Output produced by METARs form (17 October 2018  16:41 UTC)
found at http://weather.rap.ucar.edu/surface/
 
Conditions at: KBKV observed 17 October 2018  15:53 UTC
Temperature: 30.6°C (87°F)
Dewpoint: 23.3°C (74°F) [RH = 65%]
Pressure (altimeter): 30.17 inches Hg (1021.8 mb)
[Sea-level pressure: 1021.3 mb]
Winds: variable direction winds at 6 MPH (5 knots; 2.6 m/s)
Visibility: 10 or more miles (16+ km)
Ceiling: at least 12,000 feet AGL
Clouds: scattered clouds at 2400 feet AGL
scattered clouds at 3400 feet AGL
Present Weather: no significant weather observed at this time
KBKV 171553Z VRB05KT 10SM SCT024 SCT034 31/23 A3017 RMK AO2 SLP213 T03060233

Conditions at: KBKV observed 17 October 2018  14:53 UTC
Temperature: 28.9°C (84°F)
Dewpoint: 23.9°C (75°F) [RH = 74%]
Pressure (altimeter): 30.17 inches Hg (1021.8 mb)
[Sea-level pressure: 1021.4 mb]
Winds: from the SE (140 degrees) at 9 MPH (8 knots; 4.2 m/s)
Visibility: 10 or more miles (16+ km)
Ceiling: at least 12,000 feet AGL
Clouds: scattered clouds at 1600 feet AGL
Present Weather: no significant weather observed at this time
KBKV 171453Z 14008KT 10SM SCT016 29/24 A3017 RMK AO2 SLP214 T02890239 51004

Conditions at: KBKV observed 17 October 2018  14:43 UTC
Temperature: 28.3°C (83°F)
Dewpoint: 24.4°C (76°F) [RH = 79%]
Pressure (altimeter): 30.17 inches Hg (1021.8 mb)
Winds: from the ESE (120 degrees) at 6 MPH (5 knots; 2.6 m/s)
Visibility: 10 or more miles (16+ km)
Ceiling: 1400 feet AGL
Clouds: broken clouds at 1400 feet AGL
Present Weather: no significant weather observed at this time
KBKV 171443Z 12005KT 10SM BKN014 28/24 A3017 RMK AO2 T02830244

Conditions at: KBKV observed 17 October 2018  14:10 UTC
Temperature: 27.8°C (82°F)
Dewpoint: 24.4°C (76°F) [RH = 82%]
Pressure (altimeter): 30.17 inches Hg (1021.8 mb)
Winds: variable direction winds at 3 MPH (3 knots; 1.6 m/s)
Visibility: 10 or more miles (16+ km)
Ceiling: 900 feet AGL
Clouds: broken clouds at 900 feet AGL
Present Weather: no significant weather observed at this time
KBKV 171410Z VRB03KT 10SM BKN009 28/24 A3017 RMK AO2 CIG 007V012 T02780244

Conditions at: KBKV observed 17 October 2018  13:53 UTC
Temperature: 26.7°C (80°F)
Dewpoint: 24.4°C (76°F) [RH = 87%]
Pressure (altimeter): 30.17 inches Hg (1021.8 mb)
[Sea-level pressure: 1021.3 mb]
Winds: from the E (90 degrees) at 5 MPH (4 knots; 2.1 m/s)
Visibility: 10 or more miles (16+ km)
Ceiling: at least 12,000 feet AGL
Clouds: few clouds at 700 feet AGL
Present Weather: no significant weather observed at this time
KBKV 171353Z 09004KT 10SM FEW007 27/24 A3017 RMK AO2 SLP213 T02670244

Conditions at: KBKV observed 17 October 2018  13:28 UTC
Temperature: 25.0°C (77°F)
Dewpoint: 24.4°C (76°F) [RH = 96%]
Pressure (altimeter): 30.16 inches Hg (1021.4 mb)
Winds: from the ENE (70 degrees) at 5 MPH (4 knots; 2.1 m/s)
Visibility: 10 or more miles (16+ km)
Ceiling: at least 12,000 feet AGL
Clouds: few clouds at 200 feet AGL
Present Weather: no significant weather observed at this time
KBKV 171328Z 07004KT 10SM FEW002 25/24 A3016 RMK AO2 T02500244

Conditions at: KBKV observed 17 October 2018  12:57 UTC
Temperature: 23.9°C (75°F)
Dewpoint: 23.3°C (74°F) [RH = 96%]
Pressure (altimeter): 30.16 inches Hg (1021.4 mb)
Winds: from the ENE (70 degrees) at 5 MPH (4 knots; 2.1 m/s)
Visibility: 3 miles (5 km)
Ceiling: 200 feet AGL
Clouds: overcast cloud deck at 200 feet AGL
Present Weather: BCFG  (patches of fog)
KBKV 171257Z 07004KT 3SM BCFG OVC002 24/23 A3016 RMK AO2 T02390233

Conditions at: KBKV observed 17 October 2018  12:53 UTC
Temperature: 23.3°C (74°F)
Dewpoint: 23.3°C (74°F) [RH = 100%]
Pressure (altimeter): 30.16 inches Hg (1021.4 mb)
[Sea-level pressure: 1021.0 mb]
Winds: from the E (80 degrees) at 3 MPH (3 knots; 1.6 m/s)
Visibility: 0.50 miles (0.80 km)
Ceiling: 200 feet AGL
Clouds: overcast cloud deck at 200 feet AGL
Present Weather: BCFG  (patches of fog)
KBKV 171253Z 08003KT 1/2SM BCFG OVC002 23/23 A3016 RMK AO2 SLP210 T02330233

Conditions at: KBKV observed 17 October 2018  12:15 UTC
Temperature: 22.8°C (73°F)
Dewpoint: 22.2°C (72°F) [RH = 96%]
Pressure (altimeter): 30.14 inches Hg (1020.7 mb)
Winds: from the E (80 degrees) at 3 MPH (3 knots; 1.6 m/s)
Visibility: 0.50 miles (0.80 km)
Ceiling: 200 feet AGL
Clouds: overcast cloud deck at 200 feet AGL
Present Weather: BCFG  (patches of fog)
KBKV 171215Z 08003KT 1/2SM BCFG OVC002 23/22 A3014 RMK AO2 T02280222

Conditions at: KBKV observed 17 October 2018  11:57 UTC
Temperature: 21.7°C (71°F)
Dewpoint: 21.7°C (71°F) [RH = 100%]
Pressure (altimeter): 30.14 inches Hg (1020.7 mb)
Winds: from the ENE (70 degrees) at 5 MPH (4 knots; 2.1 m/s)
Visibility: 2.00 miles (3.22 km)
Ceiling: 200 feet AGL
Clouds: broken clouds at 200 feet AGL
Present Weather: BCFG  (patches of fog)
KBKV 171157Z 07004KT 2SM BCFG BKN002 22/22 A3014 RMK AO2 T02170217

Conditions at: KBKV observed 17 October 2018  11:53 UTC
Temperature: 21.7°C (71°F)
Dewpoint: 21.7°C (71°F) [RH = 100%]
Pressure (altimeter): 30.14 inches Hg (1020.7 mb)
[Sea-level pressure: 1020.3 mb]
Winds: from the ENE (70 degrees) at 3 MPH (3 knots; 1.6 m/s)
Visibility: 10 or more miles (16+ km)
Ceiling: at least 12,000 feet AGL
Clouds: sky clear below 12,000 feet AGL
Present Weather: no significant weather observed at this time
KBKV 171153Z 07003KT 10SM CLR 22/22 A3014 RMK AO2 SLP203 T02170217 10233 20206 53012

Conditions at: KBKV observed 17 October 2018  11:36 UTC
Temperature: 21.7°C (71°F)
Dewpoint: 21.7°C (71°F) [RH = 100%]
Pressure (altimeter): 30.14 inches Hg (1020.7 mb)
Winds: calm
Visibility: 10 or more miles (16+ km)
Ceiling: at least 12,000 feet AGL
Clouds: sky clear below 12,000 feet AGL
Present Weather: no significant weather observed at this time
KBKV 171136Z 00000KT 10SM CLR 22/22 A3014 RMK AO2 T02170217

Conditions at: KBKV observed 17 October 2018  11:28 UTC
Temperature: 21.1°C (70°F)
Dewpoint: 21.1°C (70°F) [RH = 100%]
Pressure (altimeter): 30.13 inches Hg (1020.4 mb)
Winds: from the NE (50 degrees) at 3 MPH (3 knots; 1.6 m/s)
Visibility: 2.00 miles (3.22 km)
Ceiling: at least 12,000 feet AGL
Clouds: sky clear below 12,000 feet AGL
Present Weather: BR  (mist)
KBKV 171128Z 05003KT 2SM BR CLR 21/21 A3013 RMK AO2 T02110211

Conditions at: KBKV observed 17 October 2018  11:23 UTC
Temperature: 21.7°C (71°F)
Dewpoint: 21.1°C (70°F) [RH = 96%]
Pressure (altimeter): 30.13 inches Hg (1020.4 mb)
Winds: from the ENE (70 degrees) at 3 MPH (3 knots; 1.6 m/s)
Visibility: 0.75 miles (1.21 km)
Ceiling: at least 12,000 feet AGL
Clouds: sky clear below 12,000 feet AGL
Present Weather: BR  (mist)
KBKV 171123Z 07003KT 3/4SM BR CLR 22/21 A3013 RMK AO2 T02170211

Conditions at: KBKV observed 17 October 2018  11:14 UTC
Temperature: 21.7°C (71°F)
Dewpoint: 21.1°C (70°F) [RH = 96%]
Pressure (altimeter): 30.13 inches Hg (1020.4 mb)
Winds: from the E (90 degrees) at 3 MPH (3 knots; 1.6 m/s)
Visibility: 1.00 miles (1.61 km)
Ceiling: at least 12,000 feet AGL
Clouds: scattered clouds at 200 feet AGL
Present Weather: BR  (mist)
KBKV 171114Z 09003KT 1SM BR SCT002 22/21 A3013 RMK AO2 T02170211

Conditions at: KBKV observed 17 October 2018  11:07 UTC
Temperature: 21.1°C (70°F)
Dewpoint: 20.6°C (69°F) [RH = 97%]
Pressure (altimeter): 30.13 inches Hg (1020.4 mb)
Winds: calm
Visibility: 1.75 miles (2.82 km)
Ceiling: at least 12,000 feet AGL
Clouds: scattered clouds at 200 feet AGL
Present Weather: BR  (mist)
KBKV 171107Z 00000KT 1 3/4SM BR SCT002 21/21 A3013 RMK AO2 VIS 1V5 T02110206

Conditions at: KBKV observed 17 October 2018  10:53 UTC
Temperature: 20.6°C (69°F)
Dewpoint: 20.6°C (69°F) [RH = 100%]
Pressure (altimeter): 30.13 inches Hg (1020.4 mb)
[Sea-level pressure: 1019.9 mb]
Winds: calm
Visibility: 10 or more miles (16+ km)
Ceiling: at least 12,000 feet AGL
Clouds: scattered clouds at 200 feet AGL
Present Weather: no significant weather observed at this time
KBKV 171053Z 00000KT 10SM SCT002 21/21 A3013 RMK AO2 SLP199 T02060206

Conditions at: KBKV observed 17 October 2018  09:53 UTC
Temperature: 22.2°C (72°F)
Dewpoint: 21.7°C (71°F) [RH = 97%]
Pressure (altimeter): 30.11 inches Hg (1019.7 mb)
[Sea-level pressure: 1019.4 mb]
Winds: from the NE (40 degrees) at 3 MPH (3 knots; 1.6 m/s)
Visibility: 10 or more miles (16+ km)
Ceiling: at least 12,000 feet AGL
Clouds: sky clear below 12,000 feet AGL
Present Weather: automated observation with no human augmentation;
there may or may not be significant weather present at this time
KBKV 170953Z AUTO 04003KT 10SM CLR 22/22 A3011 RMK AO2 SLP194 T02220217

Conditions at: KBKV observed 17 October 2018  08:53 UTC
Temperature: 22.2°C (72°F)
Dewpoint: 21.7°C (71°F) [RH = 97%]
Pressure (altimeter): 30.10 inches Hg (1019.4 mb)
[Sea-level pressure: 1019.1 mb]
Winds: calm
Visibility: 10 or more miles (16+ km)
Ceiling: at least 12,000 feet AGL
Clouds: sky clear below 12,000 feet AGL
Present Weather: automated observation with no human augmentation;
there may or may not be significant weather present at this time
KBKV 170853Z AUTO 00000KT 10SM CLR 22/22 A3010 RMK AO2 SLP191 T02220217 55008

Conditions at: KBKV observed 17 October 2018  07:53 UTC
Temperature: 22.2°C (72°F)
Dewpoint: 21.7°C (71°F) [RH = 97%]
Pressure (altimeter): 30.10 inches Hg (1019.4 mb)
[Sea-level pressure: 1019.1 mb]
Winds: calm
Visibility: 10 or more miles (16+ km)
Ceiling: at least 12,000 feet AGL
Clouds: sky clear below 12,000 feet AGL
Present Weather: automated observation with no human augmentation;
there may or may not be significant weather present at this time
KBKV 170753Z AUTO 00000KT 10SM CLR 22/22 A3010 RMK AO2 SLP191 T02220217

Conditions at: KBKV observed 17 October 2018  06:53 UTC
Temperature: 23.3°C (74°F)
Dewpoint: 22.2°C (72°F) [RH = 94%]
Pressure (altimeter): 30.11 inches Hg (1019.7 mb)
[Sea-level pressure: 1019.4 mb]
Winds: calm
Visibility: 10 or more miles (16+ km)
Ceiling: at least 12,000 feet AGL
Clouds: sky clear below 12,000 feet AGL
Present Weather: automated observation with no human augmentation;
there may or may not be significant weather present at this time
KBKV 170653Z AUTO 00000KT 10SM CLR 23/22 A3011 RMK AO2 SLP194 T02330222

Conditions at: KBKV observed 17 October 2018  05:53 UTC
Temperature: 22.8°C (73°F)
Dewpoint: 22.2°C (72°F) [RH = 96%]
Pressure (altimeter): 30.13 inches Hg (1020.4 mb)
[Sea-level pressure: 1019.9 mb]
Winds: calm
Visibility: 4 miles (6 km)
Ceiling: at least 12,000 feet AGL
Clouds: sky clear below 12,000 feet AGL
Present Weather: BR  (mist)
KBKV 170553Z AUTO 00000KT 4SM BR CLR 23/22 A3013 RMK AO2 SLP199 T02280222 10272 20222 50000

Conditions at: KBKV observed 17 October 2018  03:53 UTC
Temperature: 25.0°C (77°F)
Dewpoint: 23.3°C (74°F) [RH = 90%]
Pressure (altimeter): 30.13 inches Hg (1020.4 mb)
[Sea-level pressure: 1020.2 mb]
Winds: from the ENE (60 degrees) at 3 MPH (3 knots; 1.6 m/s)
Visibility: 10 or more miles (16+ km)
Ceiling: at least 12,000 feet AGL
Clouds: sky clear below 12,000 feet AGL
Present Weather: automated observation with no human augmentation;
there may or may not be significant weather present at this time
KBKV 170353Z AUTO 06003KT 10SM CLR 25/23 A3013 RMK AO2 SLP202 T02500233

Conditions at: KBKV observed 17 October 2018  02:53 UTC
Temperature: 23.9°C (75°F)
Dewpoint: 22.8°C (73°F) [RH = 94%]
Pressure (altimeter): 30.13 inches Hg (1020.4 mb)
[Sea-level pressure: 1019.9 mb]
Winds: calm
Visibility: 10 or more miles (16+ km)
Ceiling: at least 12,000 feet AGL
Clouds: sky clear below 12,000 feet AGL
Present Weather: automated observation with no human augmentation;
there may or may not be significant weather present at this time
KBKV 170253Z AUTO 00000KT 10SM CLR 24/23 A3013 RMK AO2 SLP199 T02390228 51016

Conditions at: KBKV observed 17 October 2018  01:53 UTC
Temperature: 25.6°C (78°F)
Dewpoint: 23.9°C (75°F) [RH = 90%]
Pressure (altimeter): 30.11 inches Hg (1019.7 mb)
[Sea-level pressure: 1019.5 mb]
Winds: from the N (10 degrees) at 3 MPH (3 knots; 1.6 m/s)
Visibility: 10 or more miles (16+ km)
Ceiling: at least 12,000 feet AGL
Clouds: sky clear below 12,000 feet AGL
Present Weather: automated observation with no human augmentation;
there may or may not be significant weather present at this time
KBKV 170153Z AUTO 01003KT 10SM CLR 26/24 A3011 RMK AO2 SLP195 T02560239

Conditions at: KBKV observed 17 October 2018  00:53 UTC
Temperature: 26.1°C (79°F)
Dewpoint: 23.9°C (75°F) [RH = 88%]
Pressure (altimeter): 30.10 inches Hg (1019.4 mb)
[Sea-level pressure: 1018.9 mb]
Winds: from the N (10 degrees) at 3 MPH (3 knots; 1.6 m/s)
Visibility: 10 or more miles (16+ km)
Ceiling: at least 12,000 feet AGL
Clouds: sky clear below 12,000 feet AGL
Present Weather: no significant weather observed at this time
KBKV 170053Z 01003KT 10SM CLR 26/24 A3010 RMK AO2 SLP189 T02610239

Conditions at: KBKV observed 16 October 2018  23:53 UTC
Temperature: 27.2°C (81°F)
Dewpoint: 23.9°C (75°F) [RH = 82%]
Pressure (altimeter): 30.08 inches Hg (1018.7 mb)
[Sea-level pressure: 1018.3 mb]
Winds: from the NNW (330 degrees) at 6 MPH (5 knots; 2.6 m/s)
Visibility: 10 or more miles (16+ km)
Ceiling: at least 12,000 feet AGL
Clouds: sky clear below 12,000 feet AGL
Present Weather: no significant weather observed at this time
KBKV 162353Z 33005KT 10SM CLR 27/24 A3008 RMK AO2 SLP183 T02720239 10344 20272 53012

Conditions at: KBKV observed 16 October 2018  23:21 UTC
Temperature: 27.8°C (82°F)
Dewpoint: 23.9°C (75°F) [RH = 79%]
Pressure (altimeter): 30.07 inches Hg (1018.4 mb)
Winds: from the NW (310 degrees) at 7 MPH (6 knots; 3.1 m/s)
Visibility: 10 or more miles (16+ km)
Ceiling: at least 12,000 feet AGL
Clouds: few clouds at 200 feet AGL
Present Weather: no significant weather observed at this time
KBKV 162321Z 31006KT 10SM FEW002 28/24 A3007 RMK AO2 T02780239

Conditions at: KBKV observed 16 October 2018  22:53 UTC
Temperature: 28.9°C (84°F)
Dewpoint: 23.9°C (75°F) [RH = 74%]
Pressure (altimeter): 30.06 inches Hg (1018.0 mb)
[Sea-level pressure: 1017.6 mb]
Winds: from the WNW (290 degrees) at 9 MPH (8 knots; 4.2 m/s)
Visibility: 10 or more miles (16+ km)
Ceiling: at least 12,000 feet AGL
Clouds: sky clear below 12,000 feet AGL
Present Weather: no significant weather observed at this time
KBKV 162253Z 29008KT 10SM CLR 29/24 A3006 RMK AO2 SLP176 T02890239

Conditions at: KBKV observed 16 October 2018  21:53 UTC
Temperature: 31.7°C (89°F)
Dewpoint: 20.6°C (69°F) [RH = 52%]
Pressure (altimeter): 30.05 inches Hg (1017.7 mb)
[Sea-level pressure: 1017.2 mb]
Winds: from the ESE (120 degrees) at 6 MPH (5 knots; 2.6 m/s)
Visibility: 10 or more miles (16+ km)
Ceiling: at least 12,000 feet AGL
Clouds: sky clear below 12,000 feet AGL
Present Weather: no significant weather observed at this time
KBKV 162153Z 12005KT 10SM CLR 32/21 A3005 RMK AO2 SLP172 T03170206

Conditions at: KBKV observed 16 October 2018  20:53 UTC
Temperature: 33.3°C (92°F)
Dewpoint: 20.6°C (69°F) [RH = 47%]
Pressure (altimeter): 30.04 inches Hg (1017.4 mb)
[Sea-level pressure: 1017.0 mb]
Winds: from the SE (130 degrees) at 5 MPH (4 knots; 2.1 m/s)
Visibility: 10 or more miles (16+ km)
Ceiling: at least 12,000 feet AGL
Clouds: sky clear below 12,000 feet AGL
Present Weather: no significant weather observed at this time
KBKV 162053Z 13004KT 10SM CLR 33/21 A3004 RMK AO2 SLP170 T03330206 56008

Conditions at: KBKV observed 16 October 2018  19:53 UTC
Temperature: 33.9°C (93°F)
Dewpoint: 21.1°C (70°F) [RH = 47%]
Pressure (altimeter): 30.04 inches Hg (1017.4 mb)
[Sea-level pressure: 1017.0 mb]
Winds: from the SE (140 degrees) at 7 MPH (6 knots; 3.1 m/s)
Visibility: 10 or more miles (16+ km)
Ceiling: at least 12,000 feet AGL
Clouds: sky clear below 12,000 feet AGL
Present Weather: no significant weather observed at this time
KBKV 161953Z 14006KT 10SM CLR 34/21 A3004 RMK AO2 SLP170 T03390211

Conditions at: KBKV observed 16 October 2018  18:53 UTC
Temperature: 33.9°C (93°F)
Dewpoint: 20.6°C (69°F) [RH = 46%]
Pressure (altimeter): 30.05 inches Hg (1017.7 mb)
[Sea-level pressure: 1017.2 mb]
Winds: from the SSE (150 degrees) at 8 MPH (7 knots; 3.6 m/s)
Visibility: 10 or more miles (16+ km)
Ceiling: at least 12,000 feet AGL
Clouds: few clouds at 5000 feet AGL
Present Weather: no significant weather observed at this time
KBKV 161853Z 15007KT 10SM FEW050 34/21 A3005 RMK AO2 SLP172 T03390206

Conditions at: KBKV observed 16 October 2018  17:53 UTC
Temperature: 33.3°C (92°F)
Dewpoint: 21.7°C (71°F) [RH = 51%]
Pressure (altimeter): 30.07 inches Hg (1018.4 mb)
[Sea-level pressure: 1017.9 mb]
Winds: variable direction winds at 6 MPH (5 knots; 2.6 m/s)
Visibility: 10 or more miles (16+ km)
Ceiling: at least 12,000 feet AGL
Clouds: few clouds at 4500 feet AGL
Present Weather: no significant weather observed at this time
KBKV 161753Z VRB05KT 10SM FEW045 33/22 A3007 RMK AO2 SLP179 T03330217 10333 20222 58024

Conditions at: KBKV observed 16 October 2018  16:53 UTC
Temperature: 32.2°C (90°F)
Dewpoint: 21.7°C (71°F) [RH = 54%]
Pressure (altimeter): 30.10 inches Hg (1019.4 mb)
[Sea-level pressure: 1018.9 mb]
Winds: from the ESE (110 degrees) at 7 MPH (6 knots; 3.1 m/s)
Visibility: 10 or more miles (16+ km)
Ceiling: at least 12,000 feet AGL
Clouds: sky clear below 12,000 feet AGL
Present Weather: no significant weather observed at this time
KBKV 161653Z 11006KT 10SM CLR 32/22 A3010 RMK AO2 SLP189 T03220217